Terminal Aerodrome Forecast
Issued by NWS

Home | Current Version | Previous Version | Text Only | Print | Product List | Glossary On
Versions: 1 2 3 4 5 6 7 8 9 10 11 12
223
FTUS45 KRIW 230536
TAFCPR
TAF
KCPR 230536Z 2306/2406 21011KT P6SM BKN200
     FM231600 22014G22KT P6SM SCT200
     FM232000 24018G28KT P6SM FEW110 SCT200
     FM240000 25013G21KT P6SM VCTS SCT060CB BKN110
     FM240400 23012KT P6SM SCT080=

USA.gov is the U.S. government's official web portal to all federal, state and local government web resources and services.